sensor_id;sensor_type;location;lat;lon;timestamp;P1;durP1;ratioP1;P2;durP2;ratioP2
1545;SDS011;766;51.502;9.752;2023-05-27T00:00:31;14.00;;;5.20;;
1545;SDS011;766;51.502;9.752;2023-05-27T00:02:59;15.68;;;4.80;;
1545;SDS011;766;51.502;9.752;2023-05-27T00:05:31;15.93;;;5.25;;
1545;SDS011;766;51.502;9.752;2023-05-27T00:08:01;23.98;;;5.50;;
1545;SDS011;766;51.502;9.752;2023-05-27T00:10:29;14.43;;;4.35;;
1545;SDS011;766;51.502;9.752;2023-05-27T00:12:58;18.00;;;5.30;;
1545;SDS011;766;51.502;9.752;2023-05-27T00:15:26;19.85;;;5.40;;
1545;SDS011;766;51.502;9.752;2023-05-27T00:17:55;16.48;;;5.10;;
1545;SDS011;766;51.502;9.752;2023-05-27T00:20:26;13.40;;;4.90;;
1545;SDS011;766;51.502;9.752;2023-05-27T00:22:56;16.25;;;5.35;;
1545;SDS011;766;51.502;9.752;2023-05-27T00:25:27;16.42;;;4.90;;
1545;SDS011;766;51.502;9.752;2023-05-27T00:27:56;17.40;;;4.60;;
1545;SDS011;766;51.502;9.752;2023-05-27T00:30:24;16.17;;;4.90;;
1545;SDS011;766;51.502;9.752;2023-05-27T00:32:53;12.07;;;4.70;;
1545;SDS011;766;51.502;9.752;2023-05-27T00:35:22;25.05;;;5.35;;
1545;SDS011;766;51.502;9.752;2023-05-27T00:37:50;17.27;;;4.93;;
1545;SDS011;766;51.502;9.752;2023-05-27T00:40:19;17.77;;;5.43;;
1545;SDS011;766;51.502;9.752;2023-05-27T00:42:50;18.83;;;5.38;;
1545;SDS011;766;51.502;9.752;2023-05-27T00:45:19;19.90;;;5.75;;
1545;SDS011;766;51.502;9.752;2023-05-27T00:47:47;16.00;;;4.68;;
1545;SDS011;766;51.502;9.752;2023-05-27T00:50:17;21.38;;;5.85;;
1545;SDS011;766;51.502;9.752;2023-05-27T00:52:48;21.23;;;5.13;;
1545;SDS011;766;51.502;9.752;2023-05-27T00:55:17;20.52;;;5.25;;
1545;SDS011;766;51.502;9.752;2023-05-27T00:57:48;19.05;;;5.07;;
1545;SDS011;766;51.502;9.752;2023-05-27T01:00:21;22.08;;;5.35;;
1545;SDS011;766;51.502;9.752;2023-05-27T01:02:49;24.25;;;5.53;;
1545;SDS011;766;51.502;9.752;2023-05-27T01:05:19;25.60;;;5.13;;
1545;SDS011;766;51.502;9.752;2023-05-27T01:07:50;20.40;;;5.03;;
1545;SDS011;766;51.502;9.752;2023-05-27T01:10:33;19.50;;;5.88;;
1545;SDS011;766;51.502;9.752;2023-05-27T01:13:11;18.00;;;4.85;;
1545;SDS011;766;51.502;9.752;2023-05-27T01:15:46;18.45;;;5.03;;
1545;SDS011;766;51.502;9.752;2023-05-27T01:18:17;24.55;;;5.38;;
1545;SDS011;766;51.502;9.752;2023-05-27T01:20:49;18.80;;;5.35;;
1545;SDS011;766;51.502;9.752;2023-05-27T01:23:22;18.25;;;4.97;;
1545;SDS011;766;51.502;9.752;2023-05-27T01:25:52;23.10;;;6.00;;
1545;SDS011;766;51.502;9.752;2023-05-27T01:28:21;14.40;;;5.10;;
1545;SDS011;766;51.502;9.752;2023-05-27T01:30:53;13.73;;;4.85;;
1545;SDS011;766;51.502;9.752;2023-05-27T01:33:25;20.08;;;5.50;;
1545;SDS011;766;51.502;9.752;2023-05-27T01:35:58;19.60;;;5.28;;
1545;SDS011;766;51.502;9.752;2023-05-27T01:38:31;20.45;;;5.40;;
1545;SDS011;766;51.502;9.752;2023-05-27T01:41:01;20.02;;;5.68;;
1545;SDS011;766;51.502;9.752;2023-05-27T01:43:30;25.45;;;6.10;;
1545;SDS011;766;51.502;9.752;2023-05-27T01:45:59;19.27;;;6.07;;
1545;SDS011;766;51.502;9.752;2023-05-27T01:48:28;29.08;;;6.57;;
1545;SDS011;766;51.502;9.752;2023-05-27T01:51:03;18.38;;;5.57;;
1545;SDS011;766;51.502;9.752;2023-05-27T01:53:34;20.60;;;5.43;;
1545;SDS011;766;51.502;9.752;2023-05-27T01:56:03;17.17;;;5.13;;
1545;SDS011;766;51.502;9.752;2023-05-27T01:58:32;17.42;;;4.90;;
1545;SDS011;766;51.502;9.752;2023-05-27T02:01:01;18.45;;;5.50;;
1545;SDS011;766;51.502;9.752;2023-05-27T02:03:29;20.98;;;5.05;;
1545;SDS011;766;51.502;9.752;2023-05-27T02:05:58;16.48;;;5.00;;
1545;SDS011;766;51.502;9.752;2023-05-27T02:08:27;20.08;;;5.82;;
1545;SDS011;766;51.502;9.752;2023-05-27T02:10:57;22.70;;;5.38;;
1545;SDS011;766;51.502;9.752;2023-05-27T02:13:25;24.33;;;4.65;;
1545;SDS011;766;51.502;9.752;2023-05-27T02:15:53;17.33;;;5.82;;
1545;SDS011;766;51.502;9.752;2023-05-27T02:18:22;17.90;;;4.75;;
1545;SDS011;766;51.502;9.752;2023-05-27T02:20:52;17.95;;;4.93;;
1545;SDS011;766;51.502;9.752;2023-05-27T02:23:20;20.52;;;5.63;;
1545;SDS011;766;51.502;9.752;2023-05-27T02:25:48;23.88;;;6.63;;
1545;SDS011;766;51.502;9.752;2023-05-27T02:28:18;21.42;;;5.10;;
1545;SDS011;766;51.502;9.752;2023-05-27T02:30:47;19.73;;;5.47;;
1545;SDS011;766;51.502;9.752;2023-05-27T02:33:15;14.70;;;5.60;;
1545;SDS011;766;51.502;9.752;2023-05-27T02:35:44;21.80;;;5.30;;
1545;SDS011;766;51.502;9.752;2023-05-27T02:38:13;21.40;;;5.32;;
1545;SDS011;766;51.502;9.752;2023-05-27T02:40:42;13.45;;;4.90;;
1545;SDS011;766;51.502;9.752;2023-05-27T02:43:11;17.08;;;5.15;;
1545;SDS011;766;51.502;9.752;2023-05-27T02:45:40;22.33;;;6.05;;
1545;SDS011;766;51.502;9.752;2023-05-27T02:48:11;20.15;;;6.18;;
1545;SDS011;766;51.502;9.752;2023-05-27T02:50:39;15.13;;;5.78;;
1545;SDS011;766;51.502;9.752;2023-05-27T02:53:12;17.25;;;5.60;;
1545;SDS011;766;51.502;9.752;2023-05-27T02:55:41;16.35;;;5.78;;
1545;SDS011;766;51.502;9.752;2023-05-27T02:58:09;17.63;;;5.07;;
1545;SDS011;766;51.502;9.752;2023-05-27T03:00:37;20.40;;;5.38;;
1545;SDS011;766;51.502;9.752;2023-05-27T03:03:07;13.90;;;4.88;;
1545;SDS011;766;51.502;9.752;2023-05-27T03:05:36;18.95;;;6.40;;
1545;SDS011;766;51.502;9.752;2023-05-27T03:08:05;17.38;;;5.13;;
1545;SDS011;766;51.502;9.752;2023-05-27T03:10:34;10.27;;;4.78;;
1545;SDS011;766;51.502;9.752;2023-05-27T03:13:03;21.17;;;5.95;;
1545;SDS011;766;51.502;9.752;2023-05-27T03:15:31;21.50;;;5.38;;
1545;SDS011;766;51.502;9.752;2023-05-27T03:17:59;13.38;;;4.68;;
1545;SDS011;766;51.502;9.752;2023-05-27T03:20:30;12.60;;;5.43;;
1545;SDS011;766;51.502;9.752;2023-05-27T03:22:59;17.90;;;5.60;;
1545;SDS011;766;51.502;9.752;2023-05-27T03:25:29;19.20;;;5.35;;
1545;SDS011;766;51.502;9.752;2023-05-27T03:28:00;19.60;;;6.10;;
1545;SDS011;766;51.502;9.752;2023-05-27T03:30:28;17.08;;;4.82;;
1545;SDS011;766;51.502;9.752;2023-05-27T03:32:57;17.40;;;5.70;;
1545;SDS011;766;51.502;9.752;2023-05-27T03:35:25;19.92;;;5.20;;
1545;SDS011;766;51.502;9.752;2023-05-27T03:37:55;17.52;;;6.15;;
1545;SDS011;766;51.502;9.752;2023-05-27T03:40:24;15.80;;;4.90;;
1545;SDS011;766;51.502;9.752;2023-05-27T03:42:53;16.90;;;5.43;;
1545;SDS011;766;51.502;9.752;2023-05-27T03:45:21;12.77;;;5.20;;
1545;SDS011;766;51.502;9.752;2023-05-27T03:47:49;16.85;;;5.13;;
1545;SDS011;766;51.502;9.752;2023-05-27T03:50:17;14.07;;;4.50;;
1545;SDS011;766;51.502;9.752;2023-05-27T03:52:46;14.77;;;5.25;;
1545;SDS011;766;51.502;9.752;2023-05-27T03:55:16;12.55;;;4.30;;
1545;SDS011;766;51.502;9.752;2023-05-27T03:57:50;18.63;;;4.63;;
1545;SDS011;766;51.502;9.752;2023-05-27T04:00:18;16.90;;;5.35;;
1545;SDS011;766;51.502;9.752;2023-05-27T04:02:48;12.52;;;4.97;;
1545;SDS011;766;51.502;9.752;2023-05-27T04:05:17;19.17;;;5.45;;
1545;SDS011;766;51.502;9.752;2023-05-27T04:07:45;11.13;;;4.75;;
1545;SDS011;766;51.502;9.752;2023-05-27T04:10:15;13.43;;;5.18;;
1545;SDS011;766;51.502;9.752;2023-05-27T04:12:44;16.35;;;5.68;;
1545;SDS011;766;51.502;9.752;2023-05-27T04:15:12;20.38;;;5.65;;
1545;SDS011;766;51.502;9.752;2023-05-27T04:17:40;14.88;;;5.30;;
1545;SDS011;766;51.502;9.752;2023-05-27T04:20:10;22.80;;;6.68;;
1545;SDS011;766;51.502;9.752;2023-05-27T04:22:41;16.35;;;5.32;;
1545;SDS011;766;51.502;9.752;2023-05-27T04:25:10;14.43;;;5.82;;
1545;SDS011;766;51.502;9.752;2023-05-27T04:27:40;20.75;;;5.82;;
1545;SDS011;766;51.502;9.752;2023-05-27T04:30:09;14.27;;;5.22;;
1545;SDS011;766;51.502;9.752;2023-05-27T04:32:38;17.60;;;5.47;;
1545;SDS011;766;51.502;9.752;2023-05-27T04:35:07;19.05;;;5.95;;
1545;SDS011;766;51.502;9.752;2023-05-27T04:37:37;19.67;;;6.55;;
1545;SDS011;766;51.502;9.752;2023-05-27T04:40:08;18.83;;;5.80;;
1545;SDS011;766;51.502;9.752;2023-05-27T04:42:37;20.05;;;6.47;;
1545;SDS011;766;51.502;9.752;2023-05-27T04:45:08;18.40;;;6.15;;
1545;SDS011;766;51.502;9.752;2023-05-27T04:47:38;23.52;;;6.10;;
1545;SDS011;766;51.502;9.752;2023-05-27T04:50:09;14.18;;;5.10;;
1545;SDS011;766;51.502;9.752;2023-05-27T04:52:38;22.00;;;6.15;;
1545;SDS011;766;51.502;9.752;2023-05-27T04:55:08;18.67;;;5.40;;
1545;SDS011;766;51.502;9.752;2023-05-27T04:57:37;15.07;;;4.88;;
1545;SDS011;766;51.502;9.752;2023-05-27T05:00:10;16.30;;;4.93;;
1545;SDS011;766;51.502;9.752;2023-05-27T05:03:03;17.70;;;5.93;;
1545;SDS011;766;51.502;9.752;2023-05-27T05:05:32;14.98;;;4.85;;
1545;SDS011;766;51.502;9.752;2023-05-27T05:08:01;19.17;;;5.32;;
1545;SDS011;766;51.502;9.752;2023-05-27T05:10:31;16.40;;;5.57;;
1545;SDS011;766;51.502;9.752;2023-05-27T05:12:59;14.25;;;5.30;;
1545;SDS011;766;51.502;9.752;2023-05-27T05:15:29;16.67;;;4.65;;
1545;SDS011;766;51.502;9.752;2023-05-27T05:17:58;14.32;;;5.63;;
1545;SDS011;766;51.502;9.752;2023-05-27T05:20:27;16.55;;;5.30;;
1545;SDS011;766;51.502;9.752;2023-05-27T05:22:56;13.57;;;4.75;;
1545;SDS011;766;51.502;9.752;2023-05-27T05:25:24;18.77;;;6.05;;
1545;SDS011;766;51.502;9.752;2023-05-27T05:27:53;16.67;;;4.88;;
1545;SDS011;766;51.502;9.752;2023-05-27T05:30:21;19.05;;;5.50;;
1545;SDS011;766;51.502;9.752;2023-05-27T05:32:51;16.98;;;5.10;;
1545;SDS011;766;51.502;9.752;2023-05-27T05:35:20;17.23;;;5.05;;
1545;SDS011;766;51.502;9.752;2023-05-27T05:37:49;17.52;;;5.45;;
1545;SDS011;766;51.502;9.752;2023-05-27T05:40:18;14.85;;;5.22;;
1545;SDS011;766;51.502;9.752;2023-05-27T05:42:49;14.85;;;5.30;;
1545;SDS011;766;51.502;9.752;2023-05-27T05:45:17;15.82;;;4.80;;
1545;SDS011;766;51.502;9.752;2023-05-27T05:47:46;16.75;;;5.65;;
1545;SDS011;766;51.502;9.752;2023-05-27T05:50:16;14.15;;;5.07;;
1545;SDS011;766;51.502;9.752;2023-05-27T05:52:44;10.65;;;4.88;;
1545;SDS011;766;51.502;9.752;2023-05-27T05:55:13;14.68;;;4.80;;
1545;SDS011;766;51.502;9.752;2023-05-27T05:57:41;16.08;;;5.03;;
1545;SDS011;766;51.502;9.752;2023-05-27T06:00:10;13.00;;;5.03;;
1545;SDS011;766;51.502;9.752;2023-05-27T06:02:40;14.65;;;5.05;;
1545;SDS011;766;51.502;9.752;2023-05-27T06:05:09;17.27;;;6.05;;
1545;SDS011;766;51.502;9.752;2023-05-27T06:07:38;13.40;;;5.50;;
1545;SDS011;766;51.502;9.752;2023-05-27T06:10:07;15.73;;;5.55;;
1545;SDS011;766;51.502;9.752;2023-05-27T06:12:36;12.05;;;5.45;;
1545;SDS011;766;51.502;9.752;2023-05-27T06:15:05;15.27;;;6.05;;
1545;SDS011;766;51.502;9.752;2023-05-27T06:17:34;18.88;;;6.47;;
1545;SDS011;766;51.502;9.752;2023-05-27T06:20:02;14.57;;;5.80;;
1545;SDS011;766;51.502;9.752;2023-05-27T06:22:31;14.80;;;5.00;;
1545;SDS011;766;51.502;9.752;2023-05-27T06:25:01;10.10;;;4.70;;
1545;SDS011;766;51.502;9.752;2023-05-27T06:27:30;19.50;;;6.57;;
1545;SDS011;766;51.502;9.752;2023-05-27T06:29:58;12.02;;;4.75;;
1545;SDS011;766;51.502;9.752;2023-05-27T06:32:26;15.18;;;4.88;;
1545;SDS011;766;51.502;9.752;2023-05-27T06:34:55;12.73;;;4.70;;
1545;SDS011;766;51.502;9.752;2023-05-27T06:37:23;14.88;;;4.93;;
1545;SDS011;766;51.502;9.752;2023-05-27T06:39:52;15.80;;;4.82;;
1545;SDS011;766;51.502;9.752;2023-05-27T06:42:22;13.93;;;4.95;;
1545;SDS011;766;51.502;9.752;2023-05-27T06:44:50;11.93;;;4.22;;
1545;SDS011;766;51.502;9.752;2023-05-27T06:47:18;14.30;;;5.07;;
1545;SDS011;766;51.502;9.752;2023-05-27T06:49:47;15.18;;;5.03;;
1545;SDS011;766;51.502;9.752;2023-05-27T06:52:15;23.42;;;4.93;;
1545;SDS011;766;51.502;9.752;2023-05-27T06:54:44;14.32;;;4.45;;
1545;SDS011;766;51.502;9.752;2023-05-27T06:57:13;10.85;;;4.88;;
1545;SDS011;766;51.502;9.752;2023-05-27T06:59:43;11.57;;;4.60;;
1545;SDS011;766;51.502;9.752;2023-05-27T07:02:12;14.40;;;5.20;;
1545;SDS011;766;51.502;9.752;2023-05-27T07:04:40;13.20;;;4.20;;
1545;SDS011;766;51.502;9.752;2023-05-27T07:07:08;10.23;;;3.92;;
1545;SDS011;766;51.502;9.752;2023-05-27T07:09:37;17.33;;;4.70;;
1545;SDS011;766;51.502;9.752;2023-05-27T07:12:06;14.55;;;4.90;;
1545;SDS011;766;51.502;9.752;2023-05-27T07:14:35;15.75;;;4.93;;
1545;SDS011;766;51.502;9.752;2023-05-27T07:17:05;11.98;;;4.57;;
1545;SDS011;766;51.502;9.752;2023-05-27T07:19:33;16.05;;;4.68;;
1545;SDS011;766;51.502;9.752;2023-05-27T07:22:02;11.68;;;4.75;;
1545;SDS011;766;51.502;9.752;2023-05-27T07:24:31;12.45;;;4.43;;
1545;SDS011;766;51.502;9.752;2023-05-27T07:26:59;12.55;;;4.47;;
1545;SDS011;766;51.502;9.752;2023-05-27T07:29:28;13.77;;;4.80;;
1545;SDS011;766;51.502;9.752;2023-05-27T07:31:56;11.77;;;4.30;;
1545;SDS011;766;51.502;9.752;2023-05-27T07:34:26;13.73;;;4.47;;
1545;SDS011;766;51.502;9.752;2023-05-27T07:36:55;12.43;;;4.38;;
1545;SDS011;766;51.502;9.752;2023-05-27T07:39:24;11.70;;;4.78;;
1545;SDS011;766;51.502;9.752;2023-05-27T07:41:52;14.60;;;4.68;;
1545;SDS011;766;51.502;9.752;2023-05-27T07:44:20;10.10;;;4.03;;
1545;SDS011;766;51.502;9.752;2023-05-27T07:46:51;8.50;;;3.85;;
1545;SDS011;766;51.502;9.752;2023-05-27T07:49:20;12.30;;;4.93;;
1545;SDS011;766;51.502;9.752;2023-05-27T07:51:49;10.63;;;4.15;;
1545;SDS011;766;51.502;9.752;2023-05-27T07:54:18;14.10;;;4.90;;
1545;SDS011;766;51.502;9.752;2023-05-27T07:56:49;17.27;;;5.20;;
1545;SDS011;766;51.502;9.752;2023-05-27T07:59:18;13.38;;;4.43;;
1545;SDS011;766;51.502;9.752;2023-05-27T08:01:47;13.35;;;4.88;;
1545;SDS011;766;51.502;9.752;2023-05-27T08:04:15;13.50;;;4.68;;
1545;SDS011;766;51.502;9.752;2023-05-27T08:06:52;12.73;;;4.95;;
1545;SDS011;766;51.502;9.752;2023-05-27T08:09:21;14.00;;;4.05;;
1545;SDS011;766;51.502;9.752;2023-05-27T08:11:49;10.15;;;4.30;;
1545;SDS011;766;51.502;9.752;2023-05-27T08:14:18;12.40;;;4.13;;
1545;SDS011;766;51.502;9.752;2023-05-27T08:16:47;13.13;;;4.20;;
1545;SDS011;766;51.502;9.752;2023-05-27T08:19:16;9.57;;;3.78;;
1545;SDS011;766;51.502;9.752;2023-05-27T08:21:44;12.00;;;4.68;;
1545;SDS011;766;51.502;9.752;2023-05-27T08:24:14;12.85;;;4.10;;
1545;SDS011;766;51.502;9.752;2023-05-27T08:26:43;9.65;;;4.53;;
1545;SDS011;766;51.502;9.752;2023-05-27T08:29:12;12.38;;;4.80;;
1545;SDS011;766;51.502;9.752;2023-05-27T08:31:41;10.35;;;4.47;;
1545;SDS011;766;51.502;9.752;2023-05-27T08:34:09;10.68;;;4.25;;
1545;SDS011;766;51.502;9.752;2023-05-27T08:36:38;14.82;;;4.35;;
1545;SDS011;766;51.502;9.752;2023-05-27T08:39:06;14.85;;;5.15;;
1545;SDS011;766;51.502;9.752;2023-05-27T08:41:37;14.95;;;4.25;;
1545;SDS011;766;51.502;9.752;2023-05-27T08:44:05;11.63;;;4.15;;
1545;SDS011;766;51.502;9.752;2023-05-27T08:46:37;13.18;;;4.95;;
1545;SDS011;766;51.502;9.752;2023-05-27T08:49:06;9.30;;;4.07;;
1545;SDS011;766;51.502;9.752;2023-05-27T08:51:35;15.57;;;4.65;;
1545;SDS011;766;51.502;9.752;2023-05-27T08:54:07;14.18;;;4.80;;
1545;SDS011;766;51.502;9.752;2023-05-27T08:56:39;12.40;;;4.70;;
1545;SDS011;766;51.502;9.752;2023-05-27T08:59:11;11.50;;;4.47;;
1545;SDS011;766;51.502;9.752;2023-05-27T09:01:39;13.80;;;4.63;;
1545;SDS011;766;51.502;9.752;2023-05-27T09:04:09;10.25;;;4.13;;
1545;SDS011;766;51.502;9.752;2023-05-27T09:06:37;12.68;;;4.50;;
1545;SDS011;766;51.502;9.752;2023-05-27T09:09:06;15.82;;;5.18;;
1545;SDS011;766;51.502;9.752;2023-05-27T09:11:38;11.88;;;4.88;;
1545;SDS011;766;51.502;9.752;2023-05-27T09:14:11;11.30;;;4.60;;
1545;SDS011;766;51.502;9.752;2023-05-27T09:16:47;11.80;;;4.32;;
1545;SDS011;766;51.502;9.752;2023-05-27T09:19:16;10.70;;;4.60;;
1545;SDS011;766;51.502;9.752;2023-05-27T09:21:44;10.38;;;4.38;;
1545;SDS011;766;51.502;9.752;2023-05-27T09:24:13;9.07;;;3.90;;
1545;SDS011;766;51.502;9.752;2023-05-27T09:26:42;12.07;;;4.20;;
1545;SDS011;766;51.502;9.752;2023-05-27T09:29:17;9.60;;;4.28;;
1545;SDS011;766;51.502;9.752;2023-05-27T09:31:46;10.05;;;4.50;;
1545;SDS011;766;51.502;9.752;2023-05-27T09:34:15;11.80;;;4.55;;
1545;SDS011;766;51.502;9.752;2023-05-27T09:36:44;13.07;;;4.93;;
1545;SDS011;766;51.502;9.752;2023-05-27T09:39:14;13.38;;;4.45;;
1545;SDS011;766;51.502;9.752;2023-05-27T09:41:45;11.57;;;4.38;;
1545;SDS011;766;51.502;9.752;2023-05-27T09:44:18;13.50;;;4.60;;
1545;SDS011;766;51.502;9.752;2023-05-27T09:46:46;9.50;;;4.45;;
1545;SDS011;766;51.502;9.752;2023-05-27T09:49:19;13.77;;;4.45;;
1545;SDS011;766;51.502;9.752;2023-05-27T09:51:50;12.73;;;4.55;;
1545;SDS011;766;51.502;9.752;2023-05-27T09:54:19;13.48;;;4.18;;
1545;SDS011;766;51.502;9.752;2023-05-27T09:56:51;13.55;;;4.80;;
1545;SDS011;766;51.502;9.752;2023-05-27T09:59:20;9.98;;;4.30;;
1545;SDS011;766;51.502;9.752;2023-05-27T10:01:50;10.27;;;4.72;;
1545;SDS011;766;51.502;9.752;2023-05-27T10:04:19;10.15;;;4.53;;
1545;SDS011;766;51.502;9.752;2023-05-27T10:06:49;12.82;;;4.80;;
1545;SDS011;766;51.502;9.752;2023-05-27T10:09:18;13.93;;;4.00;;
1545;SDS011;766;51.502;9.752;2023-05-27T10:11:47;10.05;;;4.50;;
1545;SDS011;766;51.502;9.752;2023-05-27T10:14:18;13.68;;;4.38;;
1545;SDS011;766;51.502;9.752;2023-05-27T10:16:52;12.88;;;4.70;;
1545;SDS011;766;51.502;9.752;2023-05-27T10:19:23;13.68;;;4.97;;
1545;SDS011;766;51.502;9.752;2023-05-27T10:21:52;9.00;;;3.75;;
1545;SDS011;766;51.502;9.752;2023-05-27T10:24:30;12.43;;;4.43;;
1545;SDS011;766;51.502;9.752;2023-05-27T10:27:00;10.00;;;4.30;;
1545;SDS011;766;51.502;9.752;2023-05-27T10:29:36;9.98;;;3.85;;
1545;SDS011;766;51.502;9.752;2023-05-27T10:32:05;13.15;;;4.25;;
1545;SDS011;766;51.502;9.752;2023-05-27T10:34:34;10.65;;;4.00;;
1545;SDS011;766;51.502;9.752;2023-05-27T10:37:03;10.38;;;4.00;;
1545;SDS011;766;51.502;9.752;2023-05-27T10:39:34;14.88;;;4.22;;
1545;SDS011;766;51.502;9.752;2023-05-27T10:42:03;10.95;;;4.10;;
1545;SDS011;766;51.502;9.752;2023-05-27T10:44:50;8.65;;;3.38;;
1545;SDS011;766;51.502;9.752;2023-05-27T10:47:34;13.13;;;4.35;;
1545;SDS011;766;51.502;9.752;2023-05-27T10:50:09;9.32;;;4.28;;
1545;SDS011;766;51.502;9.752;2023-05-27T10:52:40;7.75;;;3.58;;
1545;SDS011;766;51.502;9.752;2023-05-27T10:55:09;10.60;;;4.22;;
1545;SDS011;766;51.502;9.752;2023-05-27T10:57:38;9.80;;;3.90;;
1545;SDS011;766;51.502;9.752;2023-05-27T11:00:10;11.73;;;3.97;;
1545;SDS011;766;51.502;9.752;2023-05-27T11:02:43;10.48;;;3.53;;
1545;SDS011;766;51.502;9.752;2023-05-27T11:05:13;9.50;;;3.92;;
1545;SDS011;766;51.502;9.752;2023-05-27T11:07:43;9.65;;;3.67;;
1545;SDS011;766;51.502;9.752;2023-05-27T11:10:12;7.88;;;3.15;;
1545;SDS011;766;51.502;9.752;2023-05-27T11:12:43;8.80;;;3.28;;
1545;SDS011;766;51.502;9.752;2023-05-27T11:15:17;8.57;;;3.83;;
1545;SDS011;766;51.502;9.752;2023-05-27T11:17:46;8.70;;;4.05;;
1545;SDS011;766;51.502;9.752;2023-05-27T11:20:15;7.93;;;3.28;;
1545;SDS011;766;51.502;9.752;2023-05-27T11:22:48;9.43;;;3.80;;
1545;SDS011;766;51.502;9.752;2023-05-27T11:25:17;8.70;;;3.50;;
1545;SDS011;766;51.502;9.752;2023-05-27T11:27:46;8.93;;;3.10;;
1545;SDS011;766;51.502;9.752;2023-05-27T11:30:17;11.02;;;3.53;;
1545;SDS011;766;51.502;9.752;2023-05-27T11:33:01;9.63;;;3.03;;
1545;SDS011;766;51.502;9.752;2023-05-27T11:35:29;8.07;;;3.50;;
1545;SDS011;766;51.502;9.752;2023-05-27T11:38:01;7.70;;;3.42;;
1545;SDS011;766;51.502;9.752;2023-05-27T11:40:33;9.02;;;4.03;;
1545;SDS011;766;51.502;9.752;2023-05-27T11:43:03;9.48;;;3.28;;
1545;SDS011;766;51.502;9.752;2023-05-27T11:45:36;8.55;;;3.47;;
1545;SDS011;766;51.502;9.752;2023-05-27T11:48:08;8.00;;;3.70;;
1545;SDS011;766;51.502;9.752;2023-05-27T11:50:38;7.70;;;3.67;;
1545;SDS011;766;51.502;9.752;2023-05-27T11:53:13;6.78;;;3.22;;
1545;SDS011;766;51.502;9.752;2023-05-27T11:55:46;10.38;;;3.85;;
1545;SDS011;766;51.502;9.752;2023-05-27T11:58:15;7.70;;;3.55;;
1545;SDS011;766;51.502;9.752;2023-05-27T12:00:45;8.93;;;3.50;;
1545;SDS011;766;51.502;9.752;2023-05-27T12:03:13;11.02;;;3.22;;
1545;SDS011;766;51.502;9.752;2023-05-27T12:05:42;9.18;;;3.47;;
1545;SDS011;766;51.502;9.752;2023-05-27T12:08:11;9.25;;;3.50;;
1545;SDS011;766;51.502;9.752;2023-05-27T12:10:39;7.88;;;4.05;;
1545;SDS011;766;51.502;9.752;2023-05-27T12:13:09;9.93;;;4.05;;
1545;SDS011;766;51.502;9.752;2023-05-27T12:15:43;7.85;;;3.35;;
1545;SDS011;766;51.502;9.752;2023-05-27T12:18:13;8.63;;;3.63;;
1545;SDS011;766;51.502;9.752;2023-05-27T12:20:43;9.35;;;3.33;;
1545;SDS011;766;51.502;9.752;2023-05-27T12:23:12;8.82;;;3.53;;
1545;SDS011;766;51.502;9.752;2023-05-27T12:25:44;7.10;;;3.40;;
1545;SDS011;766;51.502;9.752;2023-05-27T12:28:13;9.20;;;3.38;;
1545;SDS011;766;51.502;9.752;2023-05-27T12:30:42;8.95;;;3.42;;
1545;SDS011;766;51.502;9.752;2023-05-27T12:33:15;7.20;;;3.03;;
1545;SDS011;766;51.502;9.752;2023-05-27T12:35:44;8.18;;;3.25;;
1545;SDS011;766;51.502;9.752;2023-05-27T12:38:16;8.50;;;3.10;;
1545;SDS011;766;51.502;9.752;2023-05-27T12:40:46;5.47;;;2.97;;
1545;SDS011;766;51.502;9.752;2023-05-27T12:43:22;9.60;;;3.70;;
1545;SDS011;766;51.502;9.752;2023-05-27T12:45:54;9.93;;;3.40;;
1545;SDS011;766;51.502;9.752;2023-05-27T12:48:24;9.27;;;3.50;;
1545;SDS011;766;51.502;9.752;2023-05-27T12:50:52;6.85;;;3.15;;
1545;SDS011;766;51.502;9.752;2023-05-27T12:53:22;7.40;;;3.10;;
1545;SDS011;766;51.502;9.752;2023-05-27T12:55:50;9.23;;;3.50;;
1545;SDS011;766;51.502;9.752;2023-05-27T12:58:19;7.15;;;2.83;;
1545;SDS011;766;51.502;9.752;2023-05-27T13:00:50;7.25;;;3.38;;
1545;SDS011;766;51.502;9.752;2023-05-27T13:03:18;9.55;;;3.28;;
1545;SDS011;766;51.502;9.752;2023-05-27T13:05:49;8.35;;;3.28;;
1545;SDS011;766;51.502;9.752;2023-05-27T13:08:19;11.00;;;3.92;;
1545;SDS011;766;51.502;9.752;2023-05-27T13:10:47;10.63;;;3.08;;
1545;SDS011;766;51.502;9.752;2023-05-27T13:13:16;8.07;;;3.33;;
1545;SDS011;766;51.502;9.752;2023-05-27T13:15:45;9.85;;;3.38;;
1545;SDS011;766;51.502;9.752;2023-05-27T13:18:14;8.07;;;3.05;;
1545;SDS011;766;51.502;9.752;2023-05-27T13:20:42;7.75;;;3.00;;
1545;SDS011;766;51.502;9.752;2023-05-27T13:23:12;10.85;;;3.35;;
1545;SDS011;766;51.502;9.752;2023-05-27T13:25:41;8.63;;;3.38;;
1545;SDS011;766;51.502;9.752;2023-05-27T13:28:10;9.57;;;2.88;;
1545;SDS011;766;51.502;9.752;2023-05-27T13:30:38;11.98;;;3.20;;
1545;SDS011;766;51.502;9.752;2023-05-27T13:33:07;11.13;;;3.35;;
1545;SDS011;766;51.502;9.752;2023-05-27T13:35:39;9.40;;;3.83;;
1545;SDS011;766;51.502;9.752;2023-05-27T13:38:08;9.13;;;3.22;;
1545;SDS011;766;51.502;9.752;2023-05-27T13:40:40;8.55;;;3.30;;
1545;SDS011;766;51.502;9.752;2023-05-27T13:43:08;6.55;;;3.13;;
1545;SDS011;766;51.502;9.752;2023-05-27T13:45:37;7.32;;;3.10;;
1545;SDS011;766;51.502;9.752;2023-05-27T13:48:05;12.85;;;3.72;;
1545;SDS011;766;51.502;9.752;2023-05-27T13:50:35;6.50;;;3.00;;
1545;SDS011;766;51.502;9.752;2023-05-27T13:53:03;9.57;;;3.58;;
1545;SDS011;766;51.502;9.752;2023-05-27T13:55:32;9.30;;;3.28;;
1545;SDS011;766;51.502;9.752;2023-05-27T13:58:02;8.18;;;3.10;;
1545;SDS011;766;51.502;9.752;2023-05-27T14:00:30;9.38;;;3.60;;
1545;SDS011;766;51.502;9.752;2023-05-27T14:02:59;8.70;;;3.50;;
1545;SDS011;766;51.502;9.752;2023-05-27T14:05:27;7.57;;;3.30;;
1545;SDS011;766;51.502;9.752;2023-05-27T14:07:56;10.18;;;4.00;;
1545;SDS011;766;51.502;9.752;2023-05-27T14:10:24;9.95;;;3.40;;
1545;SDS011;766;51.502;9.752;2023-05-27T14:12:53;9.50;;;3.85;;
1545;SDS011;766;51.502;9.752;2023-05-27T14:15:24;5.80;;;3.53;;
1545;SDS011;766;51.502;9.752;2023-05-27T14:17:54;7.85;;;3.28;;
1545;SDS011;766;51.502;9.752;2023-05-27T14:20:23;7.95;;;3.40;;
1545;SDS011;766;51.502;9.752;2023-05-27T14:22:54;9.60;;;3.35;;
1545;SDS011;766;51.502;9.752;2023-05-27T14:25:25;10.13;;;3.67;;
1545;SDS011;766;51.502;9.752;2023-05-27T14:27:53;8.77;;;3.60;;
1545;SDS011;766;51.502;9.752;2023-05-27T14:30:24;10.05;;;3.40;;
1545;SDS011;766;51.502;9.752;2023-05-27T14:32:53;10.35;;;3.45;;
1545;SDS011;766;51.502;9.752;2023-05-27T14:35:22;8.98;;;3.75;;
1545;SDS011;766;51.502;9.752;2023-05-27T14:37:50;11.25;;;4.60;;
1545;SDS011;766;51.502;9.752;2023-05-27T14:40:18;6.78;;;3.67;;
1545;SDS011;766;51.502;9.752;2023-05-27T14:42:47;11.85;;;3.78;;
1545;SDS011;766;51.502;9.752;2023-05-27T14:45:15;8.75;;;3.20;;
1545;SDS011;766;51.502;9.752;2023-05-27T14:47:47;11.05;;;3.25;;
1545;SDS011;766;51.502;9.752;2023-05-27T14:50:16;11.48;;;3.70;;
1545;SDS011;766;51.502;9.752;2023-05-27T14:52:44;6.82;;;3.15;;
1545;SDS011;766;51.502;9.752;2023-05-27T14:55:13;8.18;;;3.35;;
1545;SDS011;766;51.502;9.752;2023-05-27T14:57:41;6.25;;;3.28;;
1545;SDS011;766;51.502;9.752;2023-05-27T15:00:13;7.78;;;3.40;;
1545;SDS011;766;51.502;9.752;2023-05-27T15:02:41;9.10;;;3.35;;
1545;SDS011;766;51.502;9.752;2023-05-27T15:05:11;7.68;;;3.50;;
1545;SDS011;766;51.502;9.752;2023-05-27T15:07:39;13.27;;;3.67;;
1545;SDS011;766;51.502;9.752;2023-05-27T15:10:11;8.02;;;3.20;;
1545;SDS011;766;51.502;9.752;2023-05-27T15:12:40;8.57;;;3.28;;
1545;SDS011;766;51.502;9.752;2023-05-27T15:15:10;9.40;;;3.47;;
1545;SDS011;766;51.502;9.752;2023-05-27T15:17:40;5.70;;;3.35;;
1545;SDS011;766;51.502;9.752;2023-05-27T15:20:12;8.77;;;3.30;;
1545;SDS011;766;51.502;9.752;2023-05-27T15:22:43;9.15;;;3.55;;
1545;SDS011;766;51.502;9.752;2023-05-27T15:25:12;7.47;;;3.53;;
1545;SDS011;766;51.502;9.752;2023-05-27T15:27:41;9.52;;;3.47;;
1545;SDS011;766;51.502;9.752;2023-05-27T15:30:10;6.65;;;3.22;;
1545;SDS011;766;51.502;9.752;2023-05-27T15:32:38;8.68;;;3.45;;
1545;SDS011;766;51.502;9.752;2023-05-27T15:35:07;8.57;;;3.65;;